LBBG

Burgas Airport

Burgas, Bulgaria
TAF LBBG 230500Z 2306/2406 24008KT CAVOK BECMG 2309/2311 10010KT PROB40 TEMPO 2311/2316 SHRA SCT033CB BKN040 BECMG 2318/2320 05006KT TEMPO 2402/2405 3000 BR
Issued Valid From Valid To
Apr-23 @ 05:00 UTC
(4 hours ago)
Apr-23 @ 06:00 UTC
(3 hours ago)
Apr-24 @ 06:00 UTC
(in 21 hours)
Expired Click to View Apr-23 @ 06:00 to Apr-23 @ 09:00
TAF LBBG 230500Z 2306/2406 24008KT CAVOK
Wind Visibility Clouds Conditions
240° at 8 knots 10,000+ meters
  • No significant clouds
Becoming Apr-23 @ 09:00 to Apr-23 @ 18:00
BECMG 2309/2311 10010KT
Wind Visibility Clouds Conditions
100° at 10 knots 10,000+ meters
  • No significant clouds
Temporary  (Probability 40%) Apr-23 @ 11:00 to Apr-23 @ 16:00
PROB40 TEMPO 2311/2316 SHRA SCT033CB BKN040
Clouds Conditions
  • Scattered at 3,300' AGL
  • Broken at 4,000' AGL
  • Rain
Becoming Apr-23 @ 18:00 to Apr-24 @ 06:00
BECMG 2318/2320 05006KT
Wind Visibility Clouds Conditions
50° at 6 knots 10,000+ meters
  • No significant clouds
Temporary Apr-24 @ 02:00 to Apr-24 @ 05:00
TEMPO 2402/2405 3000 BR
Visibility Conditions
2,993 meters
  • Mist
TAF LBBG 230500Z 2306/2406 24008KT CAVOK BECMG 2309/2311 10010KT PROB40 TEMPO 2311/2316 SHRA SCT033CB BKN040 BECMG 2318/2320 05006KT TEMPO 2402/2405 3000 BR
Issued Apr-23 @ 05:00 UTC
(4 hours ago)
Valid From Apr-23 @ 06:00 UTC
(3 hours ago)
Valid To Apr-24 @ 06:00 UTC
(in 21 hours)
Apr-23 @ 06:00 - Apr-23 @ 09:00
Wind Visibility
240° at 8 knots 10,000+ meters
Clouds
  • No significant clouds
Conditions
Becoming Apr-23 @ 09:00 - Apr-23 @ 18:00
Wind Visibility
100° at 10 knots 10,000+ meters
Clouds
  • No significant clouds
Conditions
Probability 40% Temporary Apr-23 @ 11:00 - Apr-23 @ 16:00
Clouds
  • Scattered at 3,300' AGL
  • Broken at 4,000' AGL
Conditions
  • Rain
Becoming Apr-23 @ 18:00 - Apr-24 @ 06:00
Wind Visibility
50° at 6 knots 10,000+ meters
Clouds
  • No significant clouds
Conditions
Temporary Apr-24 @ 02:00 - Apr-24 @ 05:00
Conditions
  • Mist